sensor_id;sensor_type;location;lat;lon;timestamp;pressure;altitude;pressure_sealevel;temperature;humidity
62592;BME280;48659;41.622;2.276;2022-12-29T00:00:07;100334.62;;;8.34;52.00
62592;BME280;48659;41.622;2.276;2022-12-29T00:02:35;100332.76;;;8.44;51.60
62592;BME280;48659;41.622;2.276;2022-12-29T00:05:08;100328.15;;;8.44;51.03
62592;BME280;48659;41.622;2.276;2022-12-29T00:07:37;100328.32;;;8.15;51.82
62592;BME280;48659;41.622;2.276;2022-12-29T00:10:05;100323.73;;;8.88;50.65
62592;BME280;48659;41.622;2.276;2022-12-29T00:12:34;100324.27;;;8.59;50.89
62592;BME280;48659;41.622;2.276;2022-12-29T00:15:02;100319.49;;;8.58;50.41
62592;BME280;48659;41.622;2.276;2022-12-29T00:17:31;100322.82;;;8.57;50.74
62592;BME280;48659;41.622;2.276;2022-12-29T00:19:58;100317.70;;;8.27;51.88
62592;BME280;48659;41.622;2.276;2022-12-29T00:22:26;100317.43;;;7.35;52.49
62592;BME280;48659;41.622;2.276;2022-12-29T00:24:54;100311.83;;;7.93;52.03
62592;BME280;48659;41.622;2.276;2022-12-29T00:27:22;100317.68;;;6.21;55.71
62592;BME280;48659;41.622;2.276;2022-12-29T00:29:50;100316.13;;;7.40;53.70
62592;BME280;48659;41.622;2.276;2022-12-29T00:32:18;100312.31;;;6.89;54.31
62592;BME280;48659;41.622;2.276;2022-12-29T00:34:46;100307.93;;;7.88;52.50
62592;BME280;48659;41.622;2.276;2022-12-29T00:37:14;100313.11;;;6.15;55.43
62592;BME280;48659;41.622;2.276;2022-12-29T00:39:41;100306.63;;;6.80;58.25
62592;BME280;48659;41.622;2.276;2022-12-29T00:42:09;100298.85;;;7.17;55.07
62592;BME280;48659;41.622;2.276;2022-12-29T00:44:36;100296.72;;;7.17;54.92
62592;BME280;48659;41.622;2.276;2022-12-29T00:47:03;100297.34;;;7.60;53.81
62592;BME280;48659;41.622;2.276;2022-12-29T00:49:31;100294.47;;;6.37;55.15
62592;BME280;48659;41.622;2.276;2022-12-29T00:52:02;100290.39;;;7.30;54.58
62592;BME280;48659;41.622;2.276;2022-12-29T00:54:33;100290.82;;;7.00;54.69
62592;BME280;48659;41.622;2.276;2022-12-29T00:57:02;100289.08;;;7.08;54.64
62592;BME280;48659;41.622;2.276;2022-12-29T00:59:31;100287.96;;;6.69;55.38
62592;BME280;48659;41.622;2.276;2022-12-29T01:02:00;100289.42;;;5.71;60.02
62592;BME280;48659;41.622;2.276;2022-12-29T01:04:27;100281.58;;;7.33;56.34
62592;BME280;48659;41.622;2.276;2022-12-29T01:06:55;100284.81;;;7.46;55.67
62592;BME280;48659;41.622;2.276;2022-12-29T01:09:23;100293.38;;;6.09;59.00
62592;BME280;48659;41.622;2.276;2022-12-29T01:11:51;100293.60;;;5.90;59.45
62592;BME280;48659;41.622;2.276;2022-12-29T01:14:19;100291.09;;;6.55;57.53
62592;BME280;48659;41.622;2.276;2022-12-29T01:16:47;100293.15;;;6.21;57.32
62592;BME280;48659;41.622;2.276;2022-12-29T01:19:16;100297.13;;;5.91;58.51
62592;BME280;48659;41.622;2.276;2022-12-29T01:21:44;100290.60;;;7.93;54.64
62592;BME280;48659;41.622;2.276;2022-12-29T01:24:11;100291.82;;;7.57;53.80
62592;BME280;48659;41.622;2.276;2022-12-29T01:26:39;100291.53;;;7.61;54.37
62592;BME280;48659;41.622;2.276;2022-12-29T01:29:06;100289.13;;;7.23;54.46
62592;BME280;48659;41.622;2.276;2022-12-29T01:31:34;100287.81;;;7.70;54.22
62592;BME280;48659;41.622;2.276;2022-12-29T01:34:02;100288.97;;;6.66;56.70
62592;BME280;48659;41.622;2.276;2022-12-29T01:36:29;100293.67;;;6.87;55.51
62592;BME280;48659;41.622;2.276;2022-12-29T01:38:57;100295.39;;;6.40;56.28
62592;BME280;48659;41.622;2.276;2022-12-29T01:41:24;100294.92;;;7.28;55.26
62592;BME280;48659;41.622;2.276;2022-12-29T01:43:53;100296.16;;;6.98;55.90
62592;BME280;48659;41.622;2.276;2022-12-29T01:46:24;100298.31;;;5.87;58.89
62592;BME280;48659;41.622;2.276;2022-12-29T01:48:55;100297.37;;;6.47;58.31
62592;BME280;48659;41.622;2.276;2022-12-29T01:51:26;100292.30;;;6.48;57.07
62592;BME280;48659;41.622;2.276;2022-12-29T01:53:58;100295.81;;;6.31;58.38
62592;BME280;48659;41.622;2.276;2022-12-29T01:56:27;100299.59;;;5.10;61.57
62592;BME280;48659;41.622;2.276;2022-12-29T01:59:04;100296.10;;;6.66;59.27
62592;BME280;48659;41.622;2.276;2022-12-29T02:01:33;100293.53;;;6.72;57.57
62592;BME280;48659;41.622;2.276;2022-12-29T02:04:01;100293.25;;;6.52;57.53
62592;BME280;48659;41.622;2.276;2022-12-29T02:06:32;100288.99;;;7.22;55.58
62592;BME280;48659;41.622;2.276;2022-12-29T02:09:01;100289.62;;;6.82;56.14
62592;BME280;48659;41.622;2.276;2022-12-29T02:11:30;100293.15;;;6.56;56.75
62592;BME280;48659;41.622;2.276;2022-12-29T02:13:58;100295.03;;;5.82;59.70
62592;BME280;48659;41.622;2.276;2022-12-29T02:16:34;100297.06;;;6.29;58.41
62592;BME280;48659;41.622;2.276;2022-12-29T02:19:28;100292.69;;;6.38;58.61
62592;BME280;48659;41.622;2.276;2022-12-29T02:22:07;100291.06;;;6.16;59.94
62592;BME280;48659;41.622;2.276;2022-12-29T02:26:20;100296.27;;;5.70;63.05
62592;BME280;48659;41.622;2.276;2022-12-29T02:29:30;100296.65;;;5.79;61.34
62592;BME280;48659;41.622;2.276;2022-12-29T02:32:05;100293.83;;;6.52;58.75
62592;BME280;48659;41.622;2.276;2022-12-29T02:34:45;100285.32;;;7.16;56.94
62592;BME280;48659;41.622;2.276;2022-12-29T02:37:20;100285.98;;;7.74;56.62
62592;BME280;48659;41.622;2.276;2022-12-29T02:39:53;100282.13;;;7.13;56.31
62592;BME280;48659;41.622;2.276;2022-12-29T02:42:31;100281.11;;;7.15;55.64
62592;BME280;48659;41.622;2.276;2022-12-29T02:45:05;100274.77;;;7.37;55.26
62592;BME280;48659;41.622;2.276;2022-12-29T02:47:39;100270.77;;;7.64;54.62
62592;BME280;48659;41.622;2.276;2022-12-29T02:50:13;100267.65;;;7.13;55.90
62592;BME280;48659;41.622;2.276;2022-12-29T02:52:46;100264.54;;;7.01;55.79
62592;BME280;48659;41.622;2.276;2022-12-29T02:55:13;100269.22;;;6.41;56.39
62592;BME280;48659;41.622;2.276;2022-12-29T02:57:41;100261.23;;;7.01;55.60
62592;BME280;48659;41.622;2.276;2022-12-29T03:00:12;100273.95;;;3.51;66.01
62592;BME280;48659;41.622;2.276;2022-12-29T03:03:20;100256.50;;;4.84;64.32
62592;BME280;48659;41.622;2.276;2022-12-29T03:06:05;100259.28;;;5.80;60.87
62592;BME280;48659;41.622;2.276;2022-12-29T03:08:43;100252.03;;;6.63;58.52
62592;BME280;48659;41.622;2.276;2022-12-29T03:11:13;100249.70;;;7.08;58.57
62592;BME280;48659;41.622;2.276;2022-12-29T03:13:46;100251.16;;;7.43;56.43
62592;BME280;48659;41.622;2.276;2022-12-29T03:16:22;100248.13;;;7.81;55.85
62592;BME280;48659;41.622;2.276;2022-12-29T03:19:02;100250.02;;;6.91;56.19
62592;BME280;48659;41.622;2.276;2022-12-29T03:21:35;100251.39;;;7.00;56.83
62592;BME280;48659;41.622;2.276;2022-12-29T03:24:05;100249.40;;;7.13;54.94
62592;BME280;48659;41.622;2.276;2022-12-29T03:26:33;100254.40;;;6.67;56.80
62592;BME280;48659;41.622;2.276;2022-12-29T03:29:02;100242.71;;;7.10;55.94
62592;BME280;48659;41.622;2.276;2022-12-29T03:31:33;100241.40;;;7.48;55.23
62592;BME280;48659;41.622;2.276;2022-12-29T03:34:01;100238.76;;;6.97;56.28
62592;BME280;48659;41.622;2.276;2022-12-29T03:36:35;100232.00;;;7.87;54.31
62592;BME280;48659;41.622;2.276;2022-12-29T03:39:10;100231.84;;;7.77;55.26
62592;BME280;48659;41.622;2.276;2022-12-29T03:41:41;100233.75;;;6.40;56.23
62592;BME280;48659;41.622;2.276;2022-12-29T03:44:10;100232.54;;;4.74;61.94
62592;BME280;48659;41.622;2.276;2022-12-29T03:46:38;100226.69;;;6.11;58.38
62592;BME280;48659;41.622;2.276;2022-12-29T03:49:06;100227.81;;;5.60;59.69
62592;BME280;48659;41.622;2.276;2022-12-29T03:51:33;100226.14;;;4.93;60.29
62592;BME280;48659;41.622;2.276;2022-12-29T03:54:01;100228.08;;;5.34;60.05
62592;BME280;48659;41.622;2.276;2022-12-29T03:56:29;100230.27;;;4.87;62.95
62592;BME280;48659;41.622;2.276;2022-12-29T03:58:56;100231.78;;;4.21;65.65
62592;BME280;48659;41.622;2.276;2022-12-29T04:01:24;100233.10;;;5.29;61.41
62592;BME280;48659;41.622;2.276;2022-12-29T04:03:51;100228.94;;;6.65;58.64
62592;BME280;48659;41.622;2.276;2022-12-29T04:06:18;100229.09;;;7.03;57.23
62592;BME280;48659;41.622;2.276;2022-12-29T04:08:45;100231.45;;;6.94;57.75
62592;BME280;48659;41.622;2.276;2022-12-29T04:11:13;100234.56;;;7.25;56.45
62592;BME280;48659;41.622;2.276;2022-12-29T04:13:40;100233.92;;;6.80;57.10
62592;BME280;48659;41.622;2.276;2022-12-29T04:16:07;100237.15;;;6.94;58.13
62592;BME280;48659;41.622;2.276;2022-12-29T04:18:35;100231.69;;;6.45;57.48
62592;BME280;48659;41.622;2.276;2022-12-29T04:21:02;100235.66;;;5.75;59.17
62592;BME280;48659;41.622;2.276;2022-12-29T04:23:30;100241.56;;;5.55;58.51
62592;BME280;48659;41.622;2.276;2022-12-29T04:25:58;100234.04;;;6.35;57.95
62592;BME280;48659;41.622;2.276;2022-12-29T04:28:27;100231.45;;;6.78;56.35
62592;BME280;48659;41.622;2.276;2022-12-29T04:30:54;100222.64;;;6.89;56.63
62592;BME280;48659;41.622;2.276;2022-12-29T04:33:22;100229.36;;;5.54;59.83
62592;BME280;48659;41.622;2.276;2022-12-29T04:35:50;100228.66;;;4.83;60.21
62592;BME280;48659;41.622;2.276;2022-12-29T04:38:18;100227.51;;;5.98;58.84
62592;BME280;48659;41.622;2.276;2022-12-29T04:40:46;100230.26;;;5.34;60.62
62592;BME280;48659;41.622;2.276;2022-12-29T04:43:14;100230.56;;;4.66;61.41
62592;BME280;48659;41.622;2.276;2022-12-29T04:45:43;100225.93;;;4.79;61.58
62592;BME280;48659;41.622;2.276;2022-12-29T04:48:12;100225.60;;;5.97;58.42
62592;BME280;48659;41.622;2.276;2022-12-29T04:50:39;100228.07;;;4.93;62.68
62592;BME280;48659;41.622;2.276;2022-12-29T04:53:07;100225.28;;;5.43;60.02
62592;BME280;48659;41.622;2.276;2022-12-29T04:55:35;100223.42;;;5.27;59.72
62592;BME280;48659;41.622;2.276;2022-12-29T04:58:02;100226.58;;;4.35;61.70
62592;BME280;48659;41.622;2.276;2022-12-29T05:00:30;100227.44;;;4.62;61.87
62592;BME280;48659;41.622;2.276;2022-12-29T05:02:58;100237.37;;;3.06;66.78
62592;BME280;48659;41.622;2.276;2022-12-29T05:05:26;100243.50;;;3.67;65.89
62592;BME280;48659;41.622;2.276;2022-12-29T05:07:53;100234.13;;;5.13;64.18
62592;BME280;48659;41.622;2.276;2022-12-29T05:10:20;100235.89;;;4.67;64.35
62592;BME280;48659;41.622;2.276;2022-12-29T05:12:48;100235.33;;;5.30;62.54
62592;BME280;48659;41.622;2.276;2022-12-29T05:15:16;100236.02;;;5.83;60.55
62592;BME280;48659;41.622;2.276;2022-12-29T05:17:43;100237.29;;;6.38;58.83
62592;BME280;48659;41.622;2.276;2022-12-29T05:20:11;100233.86;;;7.11;57.00
62592;BME280;48659;41.622;2.276;2022-12-29T05:22:39;100234.17;;;6.86;57.33
62592;BME280;48659;41.622;2.276;2022-12-29T05:25:08;100237.78;;;6.16;58.16
62592;BME280;48659;41.622;2.276;2022-12-29T05:27:35;100231.56;;;6.35;57.03
62592;BME280;48659;41.622;2.276;2022-12-29T05:30:03;100237.04;;;5.19;59.79
62592;BME280;48659;41.622;2.276;2022-12-29T05:32:31;100241.99;;;3.69;65.58
62592;BME280;48659;41.622;2.276;2022-12-29T05:34:59;100231.73;;;4.70;61.48
62592;BME280;48659;41.622;2.276;2022-12-29T05:37:26;100233.78;;;4.93;62.24
62592;BME280;48659;41.622;2.276;2022-12-29T05:39:53;100232.64;;;5.14;62.10
62592;BME280;48659;41.622;2.276;2022-12-29T05:42:21;100237.78;;;4.40;64.48
62592;BME280;48659;41.622;2.276;2022-12-29T05:44:48;100225.38;;;5.48;61.35
62592;BME280;48659;41.622;2.276;2022-12-29T05:47:15;100228.11;;;5.61;61.65
62592;BME280;48659;41.622;2.276;2022-12-29T05:49:43;100233.89;;;5.35;61.09
62592;BME280;48659;41.622;2.276;2022-12-29T05:52:10;100228.24;;;6.14;59.94
62592;BME280;48659;41.622;2.276;2022-12-29T05:54:38;100227.03;;;5.91;62.29
62592;BME280;48659;41.622;2.276;2022-12-29T05:57:05;100223.68;;;5.35;62.98
62592;BME280;48659;41.622;2.276;2022-12-29T05:59:32;100230.57;;;5.09;63.66
62592;BME280;48659;41.622;2.276;2022-12-29T06:02:00;100229.83;;;5.69;61.14
62592;BME280;48659;41.622;2.276;2022-12-29T06:04:27;100222.93;;;6.66;58.68
62592;BME280;48659;41.622;2.276;2022-12-29T06:06:54;100223.56;;;6.55;57.53
62592;BME280;48659;41.622;2.276;2022-12-29T06:09:21;100231.15;;;7.39;55.87
62592;BME280;48659;41.622;2.276;2022-12-29T06:11:48;100230.26;;;7.00;56.54
62592;BME280;48659;41.622;2.276;2022-12-29T06:14:15;100230.76;;;6.57;56.08
62592;BME280;48659;41.622;2.276;2022-12-29T06:16:43;100236.10;;;7.62;53.98
62592;BME280;48659;41.622;2.276;2022-12-29T06:19:11;100244.41;;;6.92;55.68
62592;BME280;48659;41.622;2.276;2022-12-29T06:21:39;100247.26;;;6.98;55.22
62592;BME280;48659;41.622;2.276;2022-12-29T06:24:07;100251.71;;;6.94;55.24
62592;BME280;48659;41.622;2.276;2022-12-29T06:26:34;100246.42;;;7.01;55.53
62592;BME280;48659;41.622;2.276;2022-12-29T06:29:02;100253.18;;;5.96;57.01
62592;BME280;48659;41.622;2.276;2022-12-29T06:31:29;100252.08;;;7.07;55.27
62592;BME280;48659;41.622;2.276;2022-12-29T06:33:56;100252.87;;;6.86;55.11
62592;BME280;48659;41.622;2.276;2022-12-29T06:36:24;100258.41;;;6.70;55.90
62592;BME280;48659;41.622;2.276;2022-12-29T06:38:51;100263.37;;;5.04;59.11
62592;BME280;48659;41.622;2.276;2022-12-29T06:41:18;100258.34;;;6.04;56.78
62592;BME280;48659;41.622;2.276;2022-12-29T06:43:46;100257.81;;;7.47;54.98
62592;BME280;48659;41.622;2.276;2022-12-29T06:46:14;100258.44;;;7.65;53.74
62592;BME280;48659;41.622;2.276;2022-12-29T06:48:41;100258.86;;;7.99;52.31
62592;BME280;48659;41.622;2.276;2022-12-29T06:51:09;100256.48;;;7.06;53.84
62592;BME280;48659;41.622;2.276;2022-12-29T06:53:36;100257.22;;;6.53;55.20
62592;BME280;48659;41.622;2.276;2022-12-29T06:56:04;100254.17;;;7.10;54.82
62592;BME280;48659;41.622;2.276;2022-12-29T06:58:32;100256.21;;;5.31;60.09
62592;BME280;48659;41.622;2.276;2022-12-29T07:01:00;100259.28;;;3.73;64.03
62592;BME280;48659;41.622;2.276;2022-12-29T07:03:26;100257.55;;;4.29;64.13
62592;BME280;48659;41.622;2.276;2022-12-29T07:05:53;100261.85;;;3.48;66.33
62592;BME280;48659;41.622;2.276;2022-12-29T07:08:20;100256.62;;;5.21;63.66
62592;BME280;48659;41.622;2.276;2022-12-29T07:10:48;100265.39;;;4.36;64.78
62592;BME280;48659;41.622;2.276;2022-12-29T07:13:15;100269.24;;;3.64;66.72
62592;BME280;48659;41.622;2.276;2022-12-29T07:15:43;100272.44;;;4.55;63.15
62592;BME280;48659;41.622;2.276;2022-12-29T07:18:10;100261.41;;;5.65;61.60
62592;BME280;48659;41.622;2.276;2022-12-29T07:20:37;100261.33;;;5.25;62.37
62592;BME280;48659;41.622;2.276;2022-12-29T07:23:05;100270.43;;;3.70;65.93
62592;BME280;48659;41.622;2.276;2022-12-29T07:25:33;100268.81;;;3.93;66.92
62592;BME280;48659;41.622;2.276;2022-12-29T07:28:01;100265.28;;;5.40;63.31
62592;BME280;48659;41.622;2.276;2022-12-29T07:30:28;100264.16;;;6.12;61.39
62592;BME280;48659;41.622;2.276;2022-12-29T07:32:56;100269.15;;;5.48;61.57
62592;BME280;48659;41.622;2.276;2022-12-29T07:35:23;100272.18;;;5.91;61.66
62592;BME280;48659;41.622;2.276;2022-12-29T07:37:51;100269.47;;;6.53;59.72
62592;BME280;48659;41.622;2.276;2022-12-29T07:40:18;100267.39;;;6.36;59.93
62592;BME280;48659;41.622;2.276;2022-12-29T07:42:46;100278.55;;;5.76;62.31
62592;BME280;48659;41.622;2.276;2022-12-29T07:45:14;100280.98;;;5.66;62.48
62592;BME280;48659;41.622;2.276;2022-12-29T07:47:41;100281.17;;;6.10;62.38
62592;BME280;48659;41.622;2.276;2022-12-29T07:50:09;100287.67;;;6.14;61.71
62592;BME280;48659;41.622;2.276;2022-12-29T07:52:37;100293.34;;;6.50;60.29
62592;BME280;48659;41.622;2.276;2022-12-29T07:55:05;100292.91;;;7.30;58.14
62592;BME280;48659;41.622;2.276;2022-12-29T07:57:32;100292.09;;;7.47;57.74
62592;BME280;48659;41.622;2.276;2022-12-29T08:00:00;100291.33;;;8.24;56.19
62592;BME280;48659;41.622;2.276;2022-12-29T08:02:27;100296.39;;;8.49;56.29
62592;BME280;48659;41.622;2.276;2022-12-29T08:04:55;100295.96;;;8.16;54.80
62592;BME280;48659;41.622;2.276;2022-12-29T08:07:22;100294.90;;;8.36;54.46
62592;BME280;48659;41.622;2.276;2022-12-29T08:09:50;100301.99;;;8.94;54.36
62592;BME280;48659;41.622;2.276;2022-12-29T08:12:17;100294.60;;;9.01;53.30
62592;BME280;48659;41.622;2.276;2022-12-29T08:14:45;100299.44;;;8.69;53.98
62592;BME280;48659;41.622;2.276;2022-12-29T08:17:12;100298.32;;;9.16;53.12
62592;BME280;48659;41.622;2.276;2022-12-29T08:19:40;100300.17;;;9.23;53.30
62592;BME280;48659;41.622;2.276;2022-12-29T08:22:08;100295.25;;;9.57;52.71
62592;BME280;48659;41.622;2.276;2022-12-29T08:24:35;100297.57;;;10.18;52.09
62592;BME280;48659;41.622;2.276;2022-12-29T08:27:03;100302.50;;;9.38;52.12
62592;BME280;48659;41.622;2.276;2022-12-29T08:29:30;100304.86;;;9.75;52.21
62592;BME280;48659;41.622;2.276;2022-12-29T08:31:58;100307.85;;;9.91;50.84
62592;BME280;48659;41.622;2.276;2022-12-29T08:34:25;100305.02;;;10.78;50.73
62592;BME280;48659;41.622;2.276;2022-12-29T08:36:52;100309.11;;;9.95;49.71
62592;BME280;48659;41.622;2.276;2022-12-29T08:39:20;100312.97;;;10.30;50.58
62592;BME280;48659;41.622;2.276;2022-12-29T08:41:47;100317.37;;;10.52;49.36
62592;BME280;48659;41.622;2.276;2022-12-29T08:44:14;100321.52;;;10.34;49.66
62592;BME280;48659;41.622;2.276;2022-12-29T08:46:42;100325.00;;;10.45;49.34
62592;BME280;48659;41.622;2.276;2022-12-29T08:49:09;100320.77;;;9.51;50.04
62592;BME280;48659;41.622;2.276;2022-12-29T08:51:36;100319.75;;;10.12;51.12
62592;BME280;48659;41.622;2.276;2022-12-29T08:54:03;100331.60;;;8.03;55.46
62592;BME280;48659;41.622;2.276;2022-12-29T08:56:31;100324.56;;;9.65;51.88
62592;BME280;48659;41.622;2.276;2022-12-29T08:58:58;100329.14;;;10.02;51.01
62592;BME280;48659;41.622;2.276;2022-12-29T09:01:26;100327.84;;;10.18;50.26
62592;BME280;48659;41.622;2.276;2022-12-29T09:03:53;100330.36;;;10.64;48.82
62592;BME280;48659;41.622;2.276;2022-12-29T09:06:21;100331.41;;;10.84;48.46
62592;BME280;48659;41.622;2.276;2022-12-29T09:08:48;100338.61;;;10.45;48.83
62592;BME280;48659;41.622;2.276;2022-12-29T09:11:19;100338.98;;;11.14;48.33
62592;BME280;48659;41.622;2.276;2022-12-29T09:13:47;100357.81;;;8.27;54.14
62592;BME280;48659;41.622;2.276;2022-12-29T09:16:15;100353.22;;;10.56;50.59
62592;BME280;48659;41.622;2.276;2022-12-29T09:18:43;100348.63;;;10.93;49.19
62592;BME280;48659;41.622;2.276;2022-12-29T09:21:12;100350.00;;;10.88;49.24
62592;BME280;48659;41.622;2.276;2022-12-29T09:23:40;100344.44;;;10.96;48.49
62592;BME280;48659;41.622;2.276;2022-12-29T09:26:08;100341.72;;;11.33;48.84
62592;BME280;48659;41.622;2.276;2022-12-29T09:28:36;100341.12;;;11.17;48.12
62592;BME280;48659;41.622;2.276;2022-12-29T09:31:03;100339.69;;;11.36;47.64
62592;BME280;48659;41.622;2.276;2022-12-29T09:33:32;100335.58;;;11.21;48.11
62592;BME280;48659;41.622;2.276;2022-12-29T09:36:00;100334.65;;;11.14;47.46
62592;BME280;48659;41.622;2.276;2022-12-29T09:38:28;100336.84;;;11.92;47.32
62592;BME280;48659;41.622;2.276;2022-12-29T09:40:59;100344.74;;;11.08;47.23
62592;BME280;48659;41.622;2.276;2022-12-29T09:43:45;100341.38;;;11.82;47.15
62592;BME280;48659;41.622;2.276;2022-12-29T09:46:24;100336.06;;;11.40;46.72
62592;BME280;48659;41.622;2.276;2022-12-29T09:48:57;100342.08;;;11.53;47.46
62592;BME280;48659;41.622;2.276;2022-12-29T09:51:27;100338.53;;;11.28;47.61
62592;BME280;48659;41.622;2.276;2022-12-29T09:53:58;100340.52;;;11.15;47.81
62592;BME280;48659;41.622;2.276;2022-12-29T09:56:28;100340.23;;;11.41;47.54
62592;BME280;48659;41.622;2.276;2022-12-29T09:58:59;100341.55;;;11.35;47.38
62592;BME280;48659;41.622;2.276;2022-12-29T10:01:31;100340.47;;;12.03;47.87
62592;BME280;48659;41.622;2.276;2022-12-29T10:04:00;100337.39;;;12.00;46.55
62592;BME280;48659;41.622;2.276;2022-12-29T10:06:34;100337.21;;;12.02;46.47
62592;BME280;48659;41.622;2.276;2022-12-29T10:09:12;100333.06;;;12.42;45.92
62592;BME280;48659;41.622;2.276;2022-12-29T10:11:57;100331.73;;;12.14;45.46
62592;BME280;48659;41.622;2.276;2022-12-29T10:14:41;100323.61;;;12.28;45.68
62592;BME280;48659;41.622;2.276;2022-12-29T10:17:24;100314.18;;;12.57;44.88
62592;BME280;48659;41.622;2.276;2022-12-29T10:20:02;100315.05;;;11.73;46.19
62592;BME280;48659;41.622;2.276;2022-12-29T10:22:41;100309.97;;;12.37;45.39
62592;BME280;48659;41.622;2.276;2022-12-29T10:25:16;100301.92;;;13.01;44.91
62592;BME280;48659;41.622;2.276;2022-12-29T10:27:48;100294.55;;;13.06;44.30
62592;BME280;48659;41.622;2.276;2022-12-29T10:30:16;100297.90;;;12.57;45.04
62592;BME280;48659;41.622;2.276;2022-12-29T10:32:49;100287.12;;;13.14;43.87
62592;BME280;48659;41.622;2.276;2022-12-29T10:35:20;100279.49;;;13.29;44.44
62592;BME280;48659;41.622;2.276;2022-12-29T10:37:52;100275.81;;;13.00;44.30
62592;BME280;48659;41.622;2.276;2022-12-29T10:40:24;100274.52;;;13.52;44.09
62592;BME280;48659;41.622;2.276;2022-12-29T10:42:59;100270.84;;;11.45;46.57
62592;BME280;48659;41.622;2.276;2022-12-29T10:45:29;100262.79;;;13.62;43.70
62592;BME280;48659;41.622;2.276;2022-12-29T10:48:03;100257.22;;;13.00;44.38
62592;BME280;48659;41.622;2.276;2022-12-29T10:50:30;100255.17;;;14.01;43.02
62592;BME280;48659;41.622;2.276;2022-12-29T10:52:59;100250.57;;;14.23;42.56
62592;BME280;48659;41.622;2.276;2022-12-29T10:55:31;100247.04;;;13.99;43.26
62592;BME280;48659;41.622;2.276;2022-12-29T10:58:02;100253.77;;;13.49;43.47
62592;BME280;48659;41.622;2.276;2022-12-29T11:00:32;100249.01;;;14.09;43.16
62592;BME280;48659;41.622;2.276;2022-12-29T11:03:13;100252.32;;;11.95;45.80
62592;BME280;48659;41.622;2.276;2022-12-29T11:05:51;100242.98;;;13.73;43.61
62592;BME280;48659;41.622;2.276;2022-12-29T11:08:24;100233.32;;;14.48;41.96
62592;BME280;48659;41.622;2.276;2022-12-29T11:10:59;100224.15;;;13.12;44.33
62592;BME280;48659;41.622;2.276;2022-12-29T11:13:29;100220.16;;;13.92;42.88
62592;BME280;48659;41.622;2.276;2022-12-29T11:15:56;100211.59;;;13.55;43.95
62592;BME280;48659;41.622;2.276;2022-12-29T11:18:26;100204.26;;;13.85;46.02
62592;BME280;48659;41.622;2.276;2022-12-29T11:20:56;100197.82;;;14.46;41.89
62592;BME280;48659;41.622;2.276;2022-12-29T11:23:29;100192.95;;;15.16;44.40
62592;BME280;48659;41.622;2.276;2022-12-29T11:26:11;100193.30;;;15.13;41.92
62592;BME280;48659;41.622;2.276;2022-12-29T11:28:43;100190.54;;;15.22;40.38
62592;BME280;48659;41.622;2.276;2022-12-29T11:31:16;100196.15;;;14.78;40.90
62592;BME280;48659;41.622;2.276;2022-12-29T11:33:44;100188.60;;;14.92;41.13
62592;BME280;48659;41.622;2.276;2022-12-29T11:36:14;100180.12;;;15.13;41.48
62592;BME280;48659;41.622;2.276;2022-12-29T11:38:46;100174.06;;;15.48;41.87
62592;BME280;48659;41.622;2.276;2022-12-29T11:41:22;100171.67;;;15.40;39.80
62592;BME280;48659;41.622;2.276;2022-12-29T11:43:53;100173.89;;;15.77;39.97
62592;BME280;48659;41.622;2.276;2022-12-29T11:46:24;100166.20;;;15.76;39.57
62592;BME280;48659;41.622;2.276;2022-12-29T11:48:53;100164.51;;;16.27;39.79
62592;BME280;48659;41.622;2.276;2022-12-29T11:51:22;100158.95;;;15.70;39.70
62592;BME280;48659;41.622;2.276;2022-12-29T11:53:55;100152.88;;;14.47;39.42
62592;BME280;48659;41.622;2.276;2022-12-29T11:56:34;100149.04;;;14.39;40.01
62592;BME280;48659;41.622;2.276;2022-12-29T11:59:39;100143.48;;;15.17;38.98
62592;BME280;48659;41.622;2.276;2022-12-29T12:03:16;100146.70;;;15.92;38.01
62592;BME280;48659;41.622;2.276;2022-12-29T12:05:48;100146.17;;;16.08;37.99
62592;BME280;48659;41.622;2.276;2022-12-29T12:08:21;100136.54;;;16.33;38.18
62592;BME280;48659;41.622;2.276;2022-12-29T12:10:58;100132.59;;;16.50;42.56
62592;BME280;48659;41.622;2.276;2022-12-29T12:13:33;100132.78;;;15.84;40.07
62592;BME280;48659;41.622;2.276;2022-12-29T12:16:07;100122.35;;;16.22;38.07
62592;BME280;48659;41.622;2.276;2022-12-29T12:18:41;100116.36;;;15.90;40.11
62592;BME280;48659;41.622;2.276;2022-12-29T12:21:20;100113.47;;;14.60;41.22
62592;BME280;48659;41.622;2.276;2022-12-29T12:24:00;100110.75;;;16.16;42.12
62592;BME280;48659;41.622;2.276;2022-12-29T12:26:34;100108.39;;;16.70;38.24
62592;BME280;48659;41.622;2.276;2022-12-29T12:29:10;100104.54;;;16.15;41.06
62592;BME280;48659;41.622;2.276;2022-12-29T12:31:46;100099.02;;;16.66;39.53
62592;BME280;48659;41.622;2.276;2022-12-29T12:34:20;100098.37;;;16.94;40.22
62592;BME280;48659;41.622;2.276;2022-12-29T12:37:13;100095.62;;;17.43;36.70
62592;BME280;48659;41.622;2.276;2022-12-29T12:39:55;100095.25;;;17.20;37.31
62592;BME280;48659;41.622;2.276;2022-12-29T12:42:40;100086.85;;;17.32;36.33
62592;BME280;48659;41.622;2.276;2022-12-29T12:45:32;100086.24;;;17.28;36.54
62592;BME280;48659;41.622;2.276;2022-12-29T12:48:11;100081.94;;;17.24;37.80
62592;BME280;48659;41.622;2.276;2022-12-29T12:50:52;100076.24;;;17.63;36.62
62592;BME280;48659;41.622;2.276;2022-12-29T12:53:33;100078.58;;;14.58;39.68
62592;BME280;48659;41.622;2.276;2022-12-29T12:56:17;100076.88;;;15.58;40.63
62592;BME280;48659;41.622;2.276;2022-12-29T12:58:53;100065.09;;;16.02;39.68
62592;BME280;48659;41.622;2.276;2022-12-29T13:01:34;100058.75;;;16.47;38.81
62592;BME280;48659;41.622;2.276;2022-12-29T13:04:28;100056.35;;;16.88;36.92
62592;BME280;48659;41.622;2.276;2022-12-29T13:07:07;100057.75;;;14.41;39.31
62592;BME280;48659;41.622;2.276;2022-12-29T13:09:48;100049.65;;;16.56;37.89
62592;BME280;48659;41.622;2.276;2022-12-29T13:12:31;100046.40;;;17.34;36.95
62592;BME280;48659;41.622;2.276;2022-12-29T13:15:12;100038.96;;;16.25;38.04
62592;BME280;48659;41.622;2.276;2022-12-29T13:17:48;100034.00;;;17.01;36.70